SEASEATTLE-TACOMA INTL
METARs for nearby airports:
N 0 432' KSEA 160153Z 19006KT 10SM FEW020 BKN045 BKN090 21/13 A3005
NE 4 32' KRNT 160153Z VRB04KT 10SM SCT029 OVC055 22/14 A3004
N 4 21' KBFI 160153Z VRB03KT 10SM SCT030 BKN048 OVC060 21/13 A3004
SW 15 294' KTIW 160153Z 17004KT 10SM SCT021 BKN034 BKN060 19/14 A3005
W 18 444' KPWT 160139Z 21007KT 10SM SCT026 OVC047 20/14 A3005
S 19 322' KTCM 160158Z 23006KT 10SM SCT048 BKN065 BKN075 21/19 A3005
S 20 537' KPLU 160235Z 00000KT 10SM FEW019 SCT024 BKN034 18/18 A3006
SW 24 301' KGRF 160158Z 25005KT 10SM FEW023 SCT029 SCT034 BKN046 OVC055 21/19 A3004
N 27 607' KPAE 160200Z 23005KT 10SM SCT028 OVC055 19/13 A3006
W 36 272' KSHN 160153Z 29004KT 10SM BKN070 21/15 A3002
SW 37 207' KOLM 160154Z 28006KT 10SM FEW026 BKN044 OVC055 21/14 A3005
N 43 141' KAWO 160156Z 19008KT 10SM BKN037 BKN065 OVC110 22/14 A3004
SW 53 177' KCLS 160235Z 00000KT 10SM FEW020 OVC032 19/17 A3006
N 55 47' KNUW 160156Z 25008KT 10SM FEW030 SCT065 BKN120 BKN250 19/13 A3008
NW 60 13' KNOW 160230Z 27008KT 10SM BKN090 OVC120 15/12 A3005
N 61 145' KBVS 160235Z VRB04KT 10SM FEW100 21/14 A3005
NW 62 291' KCLM 160153Z 29007KT 10SM BKN090 18/14 A3006
NW 70 112' KFHR 160153Z 00000KT 10SM FEW120 14/12 A3004
SW 72 17' KHQM 160153Z 26009KT 8SM SCT060 21/16 A3006
E 76 1763' KELN 160153Z 31016G22KT 10SM -RA BKN070 OVC095 21/11 A3000
N 79 34' KORS 160235Z 17009KT 10SM CLR 20/14 A3001
N 81 171' KBLI 160153Z 17008KT 10SM SCT110 20/13 A3003
S 83 20' KKLS 160156Z 28003KT 10SM FEW045 SCT070 21/17 A3005
NW 84 64' CYYJ 160200Z 00000KT 20SM FEW040 FEW064 BKN100 BKN240 18/13 A3001
E 85 1248' KEAT 160155Z 26011KT 10SM SCT085 24/09 A2994
SE 89 1098' KYKM 160153Z 25008KT 10SM BKN070 BKN095 OVC120 24/13 A2996
W 95 193' KUIL 160153Z 30008KT 10SM FEW018 SCT095 19/14 A3006
TAFs for nearby airports:
N 0 432' KSEA TAF KSEA 152336Z 1600/1706 25006KT P6SM FEW020 BKN040 BKN070
  FM160200 21005KT P6SM VCSH BKN035 OVC050
  FM160800 VRB05KT P6SM VCSH OVC035
  FM161300 21006KT P6SM VCSH OVC020
  FM161600 24004KT P6SM VCSH BKN035
N 4 21' KBFI KBFI 152336Z 1600/1624 18006KT P6SM SCT015 BKN025 BKN070
  FM160200 18005KT P6SM VCSH BKN040 OVC060
  FM160900 23002KT P6SM VCSH OVC030
  FM161200 VRB03KT P6SM OVC025
  FM162000 22004KT P6SM BKN050
W 18 444' KPWT TAF KPWT 152336Z 1600/1624 21008KT P6SM SCT025 BKN035 OVC060
  FM160200 21005KT P6SM VCSH BKN035 OVC050
  FM160800 18006KT P6SM VCSH OVC025
  FM161000 15002KT P6SM OVC025
  FM161300 16002KT P6SM OVC015
  FM161600 18002KT P6SM OVC025
S 19 322' KTCM TAF
  AMD KTCM 152137Z 1521/1703 20009KT 9000 -SHRA SCT025 OVC040 QNH3005INS
  TEMPO 1521/1523 8000 -SHRA BKN017 BKN025
  BECMG 1523/1524 24006KT 9999 VCSH BKN030 OVC050 QNH3003INS
  BECMG 1604/1605 VRB06KT 8000 BR SCT015 BKN020 QNH3002INS
  BECMG 1610/1611 VRB06KT 8000 BR BKN015 OVC025 QNH3001INS
  BECMG 1616/1617 22009KT 9999 NSW SCT015 BKN025 QNH2999INS
  BECMG 1620/1621 22006KT 9999 SCT025 QNH2997INS TX24/1621Z TN14/1613Z
SW 24 301' KGRF TAF KGRF 152108Z 1521/1703 22009KT 9999 VCSH BKN030 OVC050 QNH3002INS
  TEMPO 1521/1524 6000 -SHRA
  BECMG 1602/1603 VRB06KT 9999 NSW BKN020 OVC040 QNH3002INS
  BECMG 1608/1609 20009KT 8000 BR OVC010 QNH3003INS
  BECMG 1614/1615 22009KT 9999 NSW OVC020 QNH3005INS
  BECMG 1620/1621 22009KT 9999 BKN030 QNH3000INS TX26/1521Z TN14/1613Z
N 27 607' KPAE KPAE 152336Z 1600/1624 24007KT P6SM FEW070 BKN080
  FM160200 21005KT P6SM VCSH BKN040 OVC060
  FM160900 VRB04KT P6SM VCSH OVC025
  FM161200 33002KT P6SM OVC015
  FM161800 31003KT P6SM BKN050
SW 37 207' KOLM KOLM 152336Z 1600/1624 19007KT P6SM BKN025 OVC050
  FM160200 VRB04KT P6SM VCSH SCT025 OVC040
  FM161200 21001KT P6SM OVC020
  FM161800 22003KT P6SM BKN050
N 55 47' KNUW TAF KNUW 1523/1623 29006KT 9999 VCSH FEW025 SCT040 BKN120 BKN250 651009 QNH3002INS
  TEMPO 1523/1605 25008KT 9999 -SHRA SCT030 BKN045 OVC100
  FM161000 VRB06KT 9999 VCSH SCT015 BKN030 OVC090 600000 QNH3000INS
  TEMPO 1610/1615 4800 BR BCFG SCT009 BKN015 OVC030
  FM161800 26008KT 9999 VCSH FEW025 SCT040 BKN100 BKN250 QNH3002INS T20/1523Z T13/1612Z FS30028
NW 62 291' KCLM KCLM 152336Z 1600/1624 31007KT P6SM VCSH OVC080
  FM160300 29006KT P6SM VCSH OVC070
  FM160700 28005KT P6SM VCSH OVC035
  FM161800 32006KT P6SM BKN050
SW 72 17' KHQM KHQM 152336Z 1600/1624 27010KT P6SM VCSH SCT070
  FM160400 26006KT P6SM VCSH OVC030
  FM160900 VRB04KT 6SM BR VCSH OVC015
  FM161700 23005KT P6SM OVC015
  FM162100 24012KT P6SM BKN050
N 81 171' KBLI KBLI 152336Z 1600/1624 18010KT P6SM OVC100
  FM160300 17010KT P6SM VCSH OVC070
  FM160900 17007KT P6SM VCSH BKN035 OVC060
  FM161200 17004KT P6SM OVC025
  FM161400 16004KT P6SM BKN025
  FM161800 17007KT P6SM BKN050
E 85 1248' KEAT TAF KEAT 152320Z 1600/1624 30009KT P6SM VCSH SCT070 OVC080
  FM160200 30013KT P6SM SCT070 BKN100
  FM160600 30008KT P6SM SCT100 BKN250
  FM161900 26007KT P6SM SCT050 BKN200
SE 89 1098' KYKM TAF KYKM 152320Z 1600/1624 VRB05KT P6SM VCSH SCT100
  FM160100 30011KT P6SM SCT100
  FM160500 28005KT P6SM FEW100 SCT200
  FM161900 VRB05KT P6SM FEW060 BKN200
Area forecast:
000
FAUS46 KKCI 101945
FA6W  
SFOC FA 101945
SYNOPSIS AND VFR CLDS/WX
SYNOPSIS VALID UNTIL 111400
CLDS/WX VALID UNTIL 110800...OTLK VALID 110800-111400
WA OR CA AND CSTL WTRS
.
SEE AIRMET SIERRA FOR IFR CONDS AND MTN OBSCN.
TS IMPLY SEV OR GTR TURB SEV ICE LLWS AND IFR CONDS.
NON MSL HGTS DENOTED BY AGL OR CIG.
.
SYNOPSIS...UPR LVL TROF WAS LOCATED NR 130W. MOIST SWLY FLOW
EXTDS FROM PAC NW EWD INTO NRN ROCKIES. HIGH PRES RIDGE WAS OVR
MUCH OF THE REST OF THE AREA. BY 14Z...UPR LVL TROF WILL EXTD
FROM WA-OR SWD INTO CA.  ..STREIB..
.
WA CASCDS WWD
CSTL SXNS
CSTLN-INLAND...SCT-BKN025 BKN035-050 TOPS 120-140. ISOL -SHRA.
   OTLK...MVFR CIGS SHRA BR.
PUGET SOUND-INTR VLY...SCT-BKN020 BKN-OVC035-050 TOPS 160 BKN CI.
   WDLY SCT -SHRA. OTLK...MVFR CIGS SHRA.
CASCDS...BKN-OVC050-070 TOPS FL180. BKN CI ABV. WDLY SCT -SHRA.
   OTLK...MVFR CIGS SHRA.
.
WA E OF CASCDS
CNTRL WA...SCT140 OVC CI. BECMG 2302 SCT080 BKN120 LYRD FL240.
   OTLK...VFR.
ERN WA...SCT-BKN140-160 LYRD FL240. BECMG 0508 BKN080 OVC120
   LYRD FL240 ISOL -SHRA DVLPG. OTLK...VFR.
.
OR CASCDS WWD
CSTL SXNS
CSTLN-INLAND...SCT-BKN020 BKN-OVC035-050 TOPS FL180. WDLY SCT
   -SHRA. OTLK...MVFR CIGS SHRA.
WILLAMETTE VLY/SWRN INTR...SCT-BKN020 BKN-OVC035-050 TOPS FL180.
   WDLY SCT -SHRA. OTLK...MVFR CIGS SHRA.
CASCDS...SCT-BKN060 BKN-OVC080-100 TOPS FL180 ISOL -SHRA.
   OTLK...MVFR CIGS SHRA.
.
OR E OF CASCDS
CNTRL...SCT100-120 BKN150 LYRD FL240. OTLK...VFR.
ERN...SCT130-150 BKN CI. BECMG 0205 OVC120-140 LYRD FL240.
   OTLK...VFR.
.
NRN CA...STS-SAC-TVL LN NWD
CSTL SXNS...
   FOT NWD...SCT025 BKN CI ABV. BECMG 0205 SCT020 OVC050 TOPS
      160. ISOL -SHRA. OTLK...IFR CIGS.
   S OF FOT...SCT-BKN010 TOPS 030-040. OTLK...IFR CIGS.
REST OF AREA...SKC OCNL SCT CI. OCNL VYS 3-5SM FU HZ.
   OTLK...VFR.
SAC VLY...
   NRN AND CNTRL SXNS...SKC. OTLK...VFR.
   SRN SXNS...SKC. OCNL VIS 3-5SM FU HZ. OTLK...MVFR FU HZ.
SHASTA-SISKIYOUS-NERN CA...
NRN SIERRAS...SKC OCNL SCT CI. WINDS SLY G25KT. OTLK...VFR WIND.
.
CNTRL CA
CSTL SXNS...
   CSTLN...SKC OCNL SCT010. BECMG 0508 OCNL CIGS BKN-SCT010 TOPS
      020-030. OTLK...IFR CIGS.
   INLAND...SKC. OTLK...VFR BECMG 1114 IFR CIGS BR.
SAN JOAQUIN VLY...SKC. OTLK...VFR.
SRN SIERRAS..SKC. OTLK...VFR.
.
SRN CA..VBG-NID-60NNW BIH LN SWD
CSTL SXNS...
   CSTLN...
      EXTRM SRN SXNS...SKC. BECMG 0205 SCT010. BECMG 0508 CIGS
         BKN-OVC010 TOPS 030. OTLK...IFR CIGS.
      REST OF AREA...SKC. OTLK...VFR BECMG 0811 IFR CIGS BR.
   INLAND...SKC OCNL FEW CI. OTLK...VFR.
INTR MTNS-MOJAVE-SRN DESERTS...SKC OCNL FEW CI. OTLK...VFR.
.
CSTL WTRS
WA...SCT-BKN035-050 TOPS 100-120. ISOL -SHRA. OTLK...VFR.
OR...
NWRN HLF...SCT-BKN035-050 TOPS 100-120. ISOL -SHRA. OTLK...VFR.
SERN HLF...SCT-BKN025 BKN035-050 TOPS FL180 BKN CI ABV. WDLY SCT
   -SHRA. OTLK...MVFR CIGS SHRA.
CA...
NRN CA...
   FOT NWD...SCT025 BKN CI ABV. BECMG 0205 SCT020 OVC050 TOPS
      160. ISOL -SHRA. OTLK...IFR CIGS.
   S OF FOT...SCT-BKN010 TOPS 030-040. OTLK...IFR CIGS.
CNTRL CA...SCT-BKN010 TOPS 030-040. OTLK...IFR CIGS.
SRN CA...
   OUTER CSTL WTRS...CIGS BKN010-020 TOPS 030-050.
      OTLK...IFR CIGS.
   ADJ CSTL WTRS...SKC. OCNL AGL SCT010. OTLK...VFR BECMG 0811
      IFR CIGS BR.
.
THE AREA FORECAST WILL TERMINATE AT 2359Z ON 10 OCTOBER 2017. IN
PLACE OF THE AREA FORECAST...PLEASE SEE THE GRAPHICAL FORECAST AT
WWW.AVIATIONWEATHER.GOV/GFA. GRAPHICAL AND TEXT AIRMETS WILL
CONTINUE AS REGULARLY SCHEDULED.
....

Shortcut to this page: http://wxbay.com.

Data may contain errors.